Terminal Aerodrome Forecast
Issued by NWS

Home | Current Version | Previous Version | Text Only | Print | Product List | Glossary On
Versions: 1 2 3 4 5 6 7 8 9 10 11 12 13 14 15 16 17 18 19 20 21 22 23
000
FTUS45 KRIW 292339
TAFPNA
TAF
KPNA 292339Z 3000/3024 23008G15KT P6SM VCSH SCT090 BKN200
     FM300200 12007KT P6SM VCSH SCT090 BKN150
     FM301500 17010KT P6SM BKN150
     FM302000 23018G28KT P6SM VCTS SCT070CB BKN100
      AMD LTD TO CLD VIS AND WIND=

USA.gov is the U.S. government's official web portal to all federal, state and local government web resources and services.